Latest Weather Observations for Nullarbor

IDS60801

Issued at 7:41 am CDT Tuesday 7 December 2021 (issued every 10 minutes, with the page automatically refreshed every 10 minutes)

About weather observations | Map of weather stations | Latest weather observations for SA | Other Formats
Station Details ID: 018106 Name: NULLARBOR Lat: -31.45 Lon: 130.90 Height: 64.0 m
Data from the previous 72 hours. | See also: Recent months at Nullarbor
Date/Time
CDT
Temp
°C
App
Temp
°C
Dew
Point
°C
Rel
Hum
%
Delta-T
°C
Wind Press
QNH
hPa
Press
MSL
hPa
Rain since
9am
mm
Dir  Spd
km/h
Gust
km/h
Spd
kts
Gust
kts
07/07:30am 15.6 15.7 15.4 99 0.1 SE 9 13 5 7 1019.5 1019.3 0.0
07/07:00am 15.1 14.6 14.9 99 0.1 SE 11 13 6 7 1019.4 1019.2 0.0
07/06:30am 14.8 13.8 14.6 99 0.1 SE 13 19 7 10 1019.0 1018.8 0.0
07/06:00am 12.5 11.1 12.3 99 0.1 SSE 11 15 6 8 1018.7 1018.5 0.0
07/05:30am 12.7 11.3 12.1 96 0.3 SSE 11 13 6 7 1018.3 1018.1 0.0
07/05:00am 14.2 11.8 12.8 91 0.8 SSE 17 19 9 10 1018.0 1017.8 0.0
07/04:30am 15.2 12.4 13.1 87 1.2 SSE 20 30 11 16 1017.9 1017.7 0.0
07/04:00am 16.0 12.6 13.7 86 1.3 SE 24 30 13 16 1017.7 1017.5 0.0
07/03:30am 16.0 12.5 12.2 78 2.1 SSE 22 28 12 15 1017.6 1017.4 0.0
07/03:00am 16.1 13.2 13.0 82 1.7 SSE 20 32 11 17 1017.7 1017.5 0.0
07/02:30am 16.1 12.1 11.7 75 2.4 SSE 24 33 13 18 1017.7 1017.5 0.0
07/02:00am 16.1 13.1 12.7 80 1.9 SSE 20 26 11 14 1017.9 1017.7 0.0
07/01:30am 16.2 13.2 12.6 79 2.0 SSE 20 28 11 15 1018.1 1017.9 0.0
07/01:00am 15.8 12.8 12.4 80 1.9 SSE 20 28 11 15 1018.5 1018.3 0.0
07/12:30am 16.4 13.4 13.7 84 1.5 SSE 22 32 12 17 1018.5 1018.3 0.0
07/12:00am 15.8 12.9 12.4 80 1.9 SSE 19 26 10 14 1018.8 1018.6 0.0
 
Date/Time
CDT
Temp
°C
App
Temp
°C
Dew
Point
°C
Rel
Hum
%
Delta-T
°C
Wind Press
QNH
hPa
Press
MSL
hPa
Rain since
9am
mm
Dir  Spd
km/h
Gust
km/h
Spd
kts
Gust
kts
06/11:30pm 15.7 12.6 12.3 80 1.9 S 20 26 11 14 1018.8 1018.6 0.0
06/11:00pm 16.1 12.8 12.8 81 1.8 SSE 22 30 12 16 1018.6 1018.4 0.0
06/10:30pm 16.1 12.8 12.8 81 1.8 SSE 22 30 12 16 1018.2 1018.0 0.0
06/10:00pm 16.0 12.7 12.9 82 1.7 SSE 22 30 12 16 1017.9 1017.7 0.0
06/09:30pm 15.7 12.7 12.6 82 1.7 SSE 20 28 11 15 1017.7 1017.5 0.0
06/09:00pm 16.0 12.6 12.4 79 2.0 SSE 22 28 12 15 1017.3 1017.1 0.0
06/08:30pm 16.6 12.0 12.4 76 2.3 S 28 35 15 19 1016.9 1016.7 0.0
06/08:00pm 17.4 12.7 13.3 77 2.3 SSE 30 39 16 21 1016.7 1016.5 0.0
06/07:30pm 18.0 13.3 13.1 73 2.8 S 30 35 16 19 1016.4 1016.2 0.0
06/07:00pm 18.3 13.2 13.2 72 2.9 S 32 41 17 22 1016.1 1015.9 0.0
06/06:30pm 18.4 13.5 13.7 74 2.7 SSE 32 41 17 22 1015.9 1015.7 0.0
06/06:00pm 19.7 15.1 14.5 72 3.0 S 32 43 17 23 1015.7 1015.5 0.0
06/05:30pm 19.0 14.5 14.9 77 2.4 SSE 32 39 17 21 1015.8 1015.6 0.0
06/05:00pm 20.1 16.4 14.9 72 3.1 SSE 28 37 15 20 1015.8 1015.6 0.0
06/04:30pm 20.3 16.7 15.3 73 3.0 S 28 35 15 19 1015.9 1015.7 0.0
06/04:00pm 20.6 17.1 16.4 77 2.5 S 30 39 16 21 1015.9 1015.7 0.0
06/03:30pm 20.7 17.4 16.1 75 2.8 SSE 28 37 15 20 1016.1 1015.9 0.0
06/03:00pm 20.5 17.3 16.3 77 2.5 SSE 28 35 15 19 1016.3 1016.1 0.0
06/02:30pm 21.3 19.6 17.3 78 2.5 SSE 22 32 12 17 1016.2 1016.0 0.0
06/02:00pm 20.7 18.5 16.9 79 2.3 SSE 24 33 13 18 1016.3 1016.1 0.0
06/01:30pm 20.5 18.4 16.3 77 2.5 SSE 22 30 12 16 1016.0 1015.8 0.0
06/01:00pm 20.9 19.2 17.3 80 2.2 SSE 22 33 12 18 1015.9 1015.7 0.0
06/12:30pm 20.2 18.8 17.0 82 1.9 SE 20 28 11 15 1015.9 1015.7 0.0
06/12:00pm 20.0 18.9 17.2 84 1.7 SSE 19 26 10 14 1015.9 1015.7 0.0
06/11:30am 19.3 18.1 17.4 89 1.2 SE 20 26 11 14 1016.1 1015.9 0.0
06/11:00am 18.4 17.7 17.4 94 0.6 SE 17 24 9 13 1016.2 1016.0 0.0
06/10:30am 18.6 17.5 17.8 95 0.5 SE 20 26 11 14 1016.2 1016.0 0.0
06/10:22am 18.5 17.5 18.0 97 0.3 SSE 20 26 11 14 1016.2 1016.0 0.0
06/10:00am 18.3 18.3 18.1 99 0.1 SE 15 22 8 12 1016.5 1016.3 0.0
06/09:54am 18.4 18.4 18.2 99 0.1 ESE 15 22 8 12 1016.3 1016.1 0.0
06/09:30am 18.0 17.6 18.0 100 0.0 E 17 22 9 12 1015.8 1015.6 0.0
06/09:00am 17.6 16.6 17.6 100 0.0 ESE 19 22 10 12 1015.6 1015.4 0.0
06/08:30am 16.6 15.6 16.6 100 0.0 E 17 20 9 11 1015.3 1015.1 0.0
06/08:00am 15.1 - - - - E 11 15 6 8 1015.3 1015.1 0.0
06/07:33am 13.8 - - - - ENE 9 13 5 7 1015.0 1014.8 0.0
06/07:30am 13.6 - - - - ENE 9 11 5 6 1014.9 1014.7 0.0
06/07:00am 11.5 - - - - NE 11 13 6 7 1014.5 1014.3 0.0
06/06:30am 11.6 - - - - ESE 9 11 5 6 1014.5 1014.3 0.0
06/06:00am 11.7 - - - - SE 9 11 5 6 1014.3 1014.1 0.0
06/05:30am 12.5 - - - - SE 13 15 7 8 1014.0 1013.8 0.0
06/05:00am 12.9 - - - - SE 13 13 7 7 1013.7 1013.5 0.0
06/04:30am 13.6 - - - - ESE 11 13 6 7 1014.0 1013.8 0.0
06/04:00am 14.3 - - - - SE 15 17 8 9 1014.5 1014.3 0.0
06/03:30am 14.5 13.5 14.5 100 0.0 SE 13 15 7 8 1014.7 1014.5 0.0
06/03:27am 14.6 13.6 14.6 100 0.0 SE 13 17 7 9 1014.7 1014.5 0.0
06/03:00am 14.8 13.9 14.8 100 0.0 SE 13 15 7 8 1015.0 1014.8 0.0
06/02:30am 15.0 14.2 15.0 100 0.0 ESE 13 17 7 9 1015.2 1015.0 0.0
06/02:00am 15.1 - - - - ESE 13 17 7 9 1015.2 1015.0 0.0
06/01:35am 14.9 14.0 14.9 100 0.0 SE 13 17 7 9 1015.3 1015.1 0.0
06/01:30am 14.8 13.5 14.8 100 0.0 SE 15 17 8 9 1015.4 1015.2 0.0
06/01:00am 15.0 13.8 15.0 100 0.0 SE 15 19 8 10 1015.4 1015.2 0.0
06/12:30am 15.2 13.7 15.2 100 0.0 SE 17 20 9 11 1015.6 1015.4 0.0
06/12:00am 15.3 13.8 15.3 100 0.0 SE 17 20 9 11 1015.6 1015.4 0.0
 
Date/Time
CDT
Temp
°C
App
Temp
°C
Dew
Point
°C
Rel
Hum
%
Delta-T
°C
Wind Press
QNH
hPa
Press
MSL
hPa
Rain since
9am
mm
Dir  Spd
km/h
Gust
km/h
Spd
kts
Gust
kts
05/11:30pm 15.6 13.8 15.6 100 0.0 SE 19 24 10 13 1015.6 1015.4 0.0
05/11:00pm 15.7 13.8 15.7 100 0.0 SE 20 24 11 13 1015.1 1014.9 0.0
05/10:30pm 15.7 14.0 15.7 100 0.0 SE 19 22 10 12 1015.2 1015.0 0.0
05/10:00pm 15.9 14.3 15.9 100 0.0 SE 19 24 10 13 1015.1 1014.9 0.0
05/09:30pm 16.1 14.5 16.1 100 0.0 SE 19 22 10 12 1015.2 1015.0 0.0
05/09:00pm 16.4 14.8 16.4 100 0.0 SE 20 26 11 14 1015.1 1014.9 0.0
05/08:30pm 17.0 15.5 16.8 99 0.1 SE 20 28 11 15 1015.0 1014.8 0.0
05/08:00pm 17.9 15.9 17.4 97 0.3 SE 24 32 13 17 1014.8 1014.6 0.0
05/07:30pm 18.4 15.4 16.7 90 1.0 SE 28 35 15 19 1014.7 1014.5 0.0
05/07:00pm 19.1 15.1 16.3 84 1.7 SE 32 41 17 22 1014.5 1014.3 0.0
05/06:30pm 19.5 15.7 16.7 84 1.7 SE 32 37 17 20 1014.9 1014.7 0.0
05/06:00pm 19.7 16.5 16.3 81 2.0 SE 28 35 15 19 1014.9 1014.7 0.0
05/05:30pm 20.4 17.3 16.6 79 2.3 SE 28 33 15 18 1015.1 1014.9 0.0
05/05:00pm 20.9 18.7 16.9 78 2.4 SSE 24 32 13 17 1015.2 1015.0 0.0
05/04:30pm 20.5 18.5 16.5 78 2.4 SSE 22 28 12 15 1015.5 1015.3 0.0
05/04:00pm 20.8 19.2 16.6 77 2.5 SSE 20 28 11 15 1015.8 1015.6 0.0
05/03:30pm 21.7 20.6 17.3 76 2.7 SSE 19 26 10 14 1016.3 1016.1 0.0
05/03:00pm 21.7 20.3 16.9 74 2.9 S 20 30 11 16 1016.7 1016.5 0.0
05/02:30pm 21.6 21.6 17.2 76 2.7 ESE 13 17 7 9 1017.0 1016.8 0.0
05/02:00pm 21.3 20.9 17.1 77 2.6 SE 15 20 8 11 1017.2 1017.0 0.0
05/01:30pm 20.6 19.6 17.6 83 1.8 ESE 19 26 10 14 1017.6 1017.4 0.0
05/01:00pm 20.9 20.2 18.7 87 1.4 SE 20 28 11 15 1018.0 1017.8 0.0
05/12:30pm 19.5 18.0 16.7 84 1.7 ESE 20 24 11 13 1018.2 1018.0 0.0
05/12:00pm 18.5 17.8 18.2 98 0.2 ESE 19 24 10 13 1018.7 1018.5 0.0
05/11:30am 18.2 17.4 18.0 99 0.1 SSE 19 24 10 13 1019.4 1019.2 0.0
05/11:00am 17.7 16.8 17.7 100 0.0 ESE 19 24 10 13 1019.6 1019.4 0.0
05/10:30am 16.8 15.5 16.8 100 0.0 ESE 19 24 10 13 1019.9 1019.7 0.0
05/10:00am 16.9 15.1 16.9 100 0.0 ESE 22 30 12 16 1019.6 1019.4 0.0
05/09:30am 16.9 13.9 16.9 100 0.0 E 28 35 15 19 1019.4 1019.2 0.0
05/09:00am 16.1 - - - - E 24 32 13 17 1019.4 1019.2 2.0
05/08:30am 15.5 - - - - ESE 20 26 11 14 1019.2 1019.0 2.0
05/08:12am 15.1 - - - - ESE 24 32 13 17 1019.0 1018.8 1.8
05/08:01am 15.1 12.2 15.1 100 0.0 SE 24 32 13 17 1019.5 1019.3 1.8
05/08:00am 15.1 12.2 15.1 100 0.0 SE 24 32 13 17 1019.5 1019.3 1.8
05/07:30am 15.1 12.2 15.1 100 0.0 SE 24 35 13 19 1019.3 1019.1 1.8
05/07:00am 15.1 13.9 15.1 100 0.0 SSE 15 19 8 10 1020.3 1020.1 1.4
05/06:30am 15.1 13.9 15.1 100 0.0 SSE 15 20 8 11 1020.0 1019.8 1.4
05/06:00am 15.2 14.1 15.2 100 0.0 SE 15 19 8 10 1019.8 1019.6 1.4
05/05:30am 15.2 14.8 15.2 100 0.0 SSE 11 17 6 9 1019.9 1019.7 1.4
05/05:00am 15.1 14.3 15.1 100 0.0 SSE 13 17 7 9 1019.7 1019.5 1.4
05/04:30am 15.0 14.2 15.0 100 0.0 SSE 13 17 7 9 1019.7 1019.5 1.4
05/04:00am 14.9 14.4 14.9 100 0.0 SSE 11 13 6 7 1019.9 1019.7 1.4
05/03:30am 14.9 14.8 14.9 100 0.0 SSE 9 11 5 6 1020.3 1020.1 1.4
05/03:00am 14.9 15.7 14.9 100 0.0 ESE 4 7 2 4 1020.4 1020.2 1.4
05/02:30am 15.1 14.7 15.1 100 0.0 ESE 11 13 6 7 1020.4 1020.2 1.4
05/02:00am 15.1 15.1 15.1 100 0.0 ESE 9 13 5 7 1020.6 1020.4 1.4
05/01:30am 15.1 14.3 15.1 100 0.0 E 13 19 7 10 1020.3 1020.1 1.4
05/01:00am 15.2 13.7 15.2 100 0.0 E 17 22 9 12 1020.5 1020.3 1.4
05/12:30am 15.1 12.2 15.1 100 0.0 ESE 24 30 13 16 1020.4 1020.2 1.4
05/12:00am 15.1 14.7 15.1 100 0.0 SSE 11 13 6 7 1021.9 1021.7 1.4
 
Date/Time
CDT
Temp
°C
App
Temp
°C
Dew
Point
°C
Rel
Hum
%
Delta-T
°C
Wind Press
QNH
hPa
Press
MSL
hPa
Rain since
9am
mm
Dir  Spd
km/h
Gust
km/h
Spd
kts
Gust
kts
04/11:30pm 15.1 15.1 15.1 100 0.0 SSE 9 11 5 6 1021.9 1021.7 1.4
04/11:28pm 15.1 15.4 15.1 100 0.0 SSE 7 9 4 5 1021.8 1021.6 1.4
04/11:07pm 15.0 14.5 15.0 100 0.0 ESE 11 15 6 8 1021.3 1021.1 1.4
04/11:00pm 15.0 14.2 15.0 100 0.0 ESE 13 19 7 10 1021.2 1021.0 1.4
04/10:30pm 15.0 14.2 15.0 100 0.0 ESE 13 17 7 9 1021.1 1020.9 1.4
04/10:22pm 15.0 13.8 15.0 100 0.0 E 15 20 8 11 1020.9 1020.7 1.4
04/10:10pm 15.0 13.0 15.0 100 0.0 E 19 26 10 14 1020.6 1020.4 1.4
04/10:00pm 15.0 13.4 15.0 100 0.0 ESE 17 22 9 12 1020.7 1020.5 1.2
04/09:30pm 15.1 13.9 15.1 100 0.0 ESE 15 20 8 11 1021.0 1020.8 1.2
04/09:00pm 15.2 14.4 15.2 100 0.0 ESE 13 17 7 9 1021.3 1021.1 1.2
04/08:30pm 15.2 13.1 15.2 100 0.0 ESE 20 26 11 14 1020.3 1020.1 1.2
04/08:00pm 15.4 13.9 15.4 100 0.0 ESE 17 20 9 11 1020.9 1020.7 1.2
04/07:30pm 15.5 13.7 15.5 100 0.0 ESE 19 26 10 14 1020.8 1020.6 1.0
04/07:00pm 15.5 12.8 15.5 100 0.0 ESE 24 32 13 17 1020.5 1020.3 1.0
04/06:38pm 15.5 12.4 15.5 100 0.0 ESE 26 33 14 18 1019.9 1019.7 0.8
04/06:30pm 15.5 12.4 15.5 100 0.0 ESE 26 35 14 19 1020.0 1019.8 0.8
04/06:18pm 15.6 12.5 15.6 100 0.0 ESE 26 33 14 18 1020.2 1020.0 0.6
04/06:15pm 15.5 12.4 15.5 100 0.0 ESE 26 33 14 18 1020.3 1020.1 0.6
04/06:03pm 15.8 12.3 15.6 99 0.1 ESE 28 33 15 18 1020.4 1020.2 0.4
04/06:00pm 15.9 12.5 15.7 99 0.1 ESE 28 33 15 18 1020.5 1020.3 0.2
04/05:30pm 17.0 14.8 16.0 94 0.6 ESE 22 28 12 15 1021.3 1021.1 0.0
04/05:00pm 17.1 14.3 15.3 89 1.1 SE 24 32 13 17 1021.7 1021.5 0.0
04/04:30pm 17.7 14.8 16.2 91 0.9 SE 26 33 14 18 1021.4 1021.2 0.0
04/04:00pm 17.4 14.4 15.9 91 0.9 ESE 26 33 14 18 1021.6 1021.4 0.0
04/03:30pm 18.2 13.2 13.5 74 2.7 ESE 32 39 17 21 1021.3 1021.1 0.0
04/03:00pm 18.8 13.8 13.4 71 3.1 ESE 32 41 17 22 1021.4 1021.2 0.0
04/02:30pm 18.0 12.8 14.5 80 2.0 ESE 35 43 19 23 1020.9 1020.7 0.0
04/02:00pm 17.9 13.4 14.8 82 1.8 ESE 32 43 17 23 1021.5 1021.3 0.0
04/01:30pm 18.1 14.4 15.9 87 1.3 ESE 30 35 16 19 1022.6 1022.4 0.0
04/01:00pm 16.8 13.7 16.5 98 0.2 SE 28 33 15 18 1023.2 1022.9 0.0
04/12:30pm 16.8 13.6 16.2 96 0.4 SE 28 35 15 19 1023.8 1023.6 0.0
04/12:00pm 16.9 15.0 16.6 98 0.2 ESE 22 28 12 15 1024.3 1024.1 0.0
04/11:30am 16.8 14.4 16.5 98 0.2 E 24 32 13 17 1024.2 1024.0 0.0
04/11:00am 16.9 14.1 16.4 97 0.3 E 26 32 14 17 1024.7 1024.5 0.0
04/10:30am 16.9 14.6 16.7 99 0.1 ESE 24 32 13 17 1024.6 1024.4 0.0
04/10:00am 16.6 14.2 16.4 99 0.1 ESE 24 32 13 17 1024.1 1023.9 0.0
04/09:30am 16.4 13.9 16.2 99 0.1 ESE 24 32 13 17 1024.2 1024.0 0.0
04/09:26am 16.4 14.3 16.2 99 0.1 ESE 22 32 12 17 1024.1 1023.9 0.0
04/09:00am 16.4 13.5 16.2 99 0.1 ESE 26 32 14 17 1023.8 1023.6 0.0
04/08:41am 16.2 12.9 16.0 99 0.1 ESE 28 37 15 20 1022.8 1022.6 0.0
04/08:30am 16.1 12.4 15.9 99 0.1 ESE 30 43 16 23 1022.4 1022.2 0.0
04/08:24am 16.1 12.0 15.9 99 0.1 ESE 32 44 17 24 1022.1 1021.9 0.0
04/08:02am 16.1 12.4 15.9 99 0.1 ESE 30 41 16 22 1022.0 1021.8 0.0
04/08:00am 16.1 12.0 15.9 99 0.1 ESE 32 41 17 22 1022.0 1021.8 0.0

Other formats

Comma delimited format used in spreadsheet applications
http://www.bom.gov.au/fwo/IDS60801/IDS60801.94651.axf

JavaScript Object Notation format (JSON) in row-major order
http://www.bom.gov.au/fwo/IDS60801/IDS60801.94651.json

Data quality

Most of these data are generated automatically and are frequently updated. Quality checks on data are not normally performed. It is possible for incorrect values to appear. Refer to information at About Latest Weather Observations and please check the disclaimer before using these data.